sensor_id;sensor_type;location;lat;lon;timestamp;P1;durP1;ratioP1;P2;durP2;ratioP2
30553;SDS011;17335;50.720;7.452;2023-10-19T00:00:35;15.65;;;7.45;;
30553;SDS011;17335;50.720;7.452;2023-10-19T00:03:05;15.10;;;7.70;;
30553;SDS011;17335;50.720;7.452;2023-10-19T00:05:34;14.30;;;7.47;;
30553;SDS011;17335;50.720;7.452;2023-10-19T00:08:01;14.43;;;6.65;;
30553;SDS011;17335;50.720;7.452;2023-10-19T00:10:42;12.85;;;6.82;;
30553;SDS011;17335;50.720;7.452;2023-10-19T00:13:10;13.07;;;7.65;;
30553;SDS011;17335;50.720;7.452;2023-10-19T00:15:43;12.95;;;7.55;;
30553;SDS011;17335;50.720;7.452;2023-10-19T00:18:15;16.92;;;9.27;;
30553;SDS011;17335;50.720;7.452;2023-10-19T00:20:43;14.90;;;8.15;;
30553;SDS011;17335;50.720;7.452;2023-10-19T00:23:20;14.00;;;7.05;;
30553;SDS011;17335;50.720;7.452;2023-10-19T00:26:07;13.18;;;6.93;;
30553;SDS011;17335;50.720;7.452;2023-10-19T00:28:41;15.00;;;8.50;;
30553;SDS011;17335;50.720;7.452;2023-10-19T00:31:11;13.35;;;6.90;;
30553;SDS011;17335;50.720;7.452;2023-10-19T00:33:39;13.93;;;7.63;;
30553;SDS011;17335;50.720;7.452;2023-10-19T00:36:07;17.50;;;7.70;;
30553;SDS011;17335;50.720;7.452;2023-10-19T00:38:35;15.40;;;7.63;;
30553;SDS011;17335;50.720;7.452;2023-10-19T00:41:01;13.55;;;7.03;;
30553;SDS011;17335;50.720;7.452;2023-10-19T00:43:38;13.98;;;7.95;;
30553;SDS011;17335;50.720;7.452;2023-10-19T00:46:10;16.85;;;7.88;;
30553;SDS011;17335;50.720;7.452;2023-10-19T00:48:53;12.73;;;7.13;;
30553;SDS011;17335;50.720;7.452;2023-10-19T00:51:45;15.32;;;8.15;;
30553;SDS011;17335;50.720;7.452;2023-10-19T00:54:27;14.93;;;6.93;;
30553;SDS011;17335;50.720;7.452;2023-10-19T00:57:00;13.48;;;7.50;;
30553;SDS011;17335;50.720;7.452;2023-10-19T00:59:37;14.50;;;7.43;;
30553;SDS011;17335;50.720;7.452;2023-10-19T01:02:09;15.40;;;7.60;;
30553;SDS011;17335;50.720;7.452;2023-10-19T01:04:56;13.55;;;8.13;;
30553;SDS011;17335;50.720;7.452;2023-10-19T01:07:27;16.05;;;8.23;;
30553;SDS011;17335;50.720;7.452;2023-10-19T01:09:55;15.25;;;7.88;;
30553;SDS011;17335;50.720;7.452;2023-10-19T01:12:34;14.00;;;7.90;;
30553;SDS011;17335;50.720;7.452;2023-10-19T01:15:13;16.25;;;8.40;;
30553;SDS011;17335;50.720;7.452;2023-10-19T01:17:45;14.77;;;7.85;;
30553;SDS011;17335;50.720;7.452;2023-10-19T01:20:14;16.80;;;8.18;;
30553;SDS011;17335;50.720;7.452;2023-10-19T01:23:06;14.85;;;7.85;;
30553;SDS011;17335;50.720;7.452;2023-10-19T01:28:08;15.32;;;7.40;;
30553;SDS011;17335;50.720;7.452;2023-10-19T01:30:37;17.02;;;8.13;;
30553;SDS011;17335;50.720;7.452;2023-10-19T01:33:04;15.82;;;7.95;;
30553;SDS011;17335;50.720;7.452;2023-10-19T01:35:39;13.95;;;7.38;;
30553;SDS011;17335;50.720;7.452;2023-10-19T01:40:51;16.75;;;8.48;;
30553;SDS011;17335;50.720;7.452;2023-10-19T01:43:21;17.92;;;8.70;;
30553;SDS011;17335;50.720;7.452;2023-10-19T01:45:48;17.20;;;7.55;;
30553;SDS011;17335;50.720;7.452;2023-10-19T01:48:14;15.32;;;7.50;;
30553;SDS011;17335;50.720;7.452;2023-10-19T01:50:42;16.77;;;8.43;;
30553;SDS011;17335;50.720;7.452;2023-10-19T01:53:09;15.73;;;7.85;;
30553;SDS011;17335;50.720;7.452;2023-10-19T01:55:44;15.13;;;8.10;;
30553;SDS011;17335;50.720;7.452;2023-10-19T01:58:13;16.90;;;7.97;;
30553;SDS011;17335;50.720;7.452;2023-10-19T02:00:40;16.27;;;8.65;;
30553;SDS011;17335;50.720;7.452;2023-10-19T02:03:10;15.60;;;8.45;;
30553;SDS011;17335;50.720;7.452;2023-10-19T02:05:36;15.40;;;8.10;;
30553;SDS011;17335;50.720;7.452;2023-10-19T02:08:08;16.48;;;8.13;;
30553;SDS011;17335;50.720;7.452;2023-10-19T02:10:34;17.98;;;8.70;;
30553;SDS011;17335;50.720;7.452;2023-10-19T02:13:02;15.90;;;8.43;;
30553;SDS011;17335;50.720;7.452;2023-10-19T02:15:33;18.90;;;8.60;;
30553;SDS011;17335;50.720;7.452;2023-10-19T02:18:03;20.67;;;9.32;;
30553;SDS011;17335;50.720;7.452;2023-10-19T02:20:31;19.40;;;7.93;;
30553;SDS011;17335;50.720;7.452;2023-10-19T02:23:09;17.52;;;8.88;;
30553;SDS011;17335;50.720;7.452;2023-10-19T02:25:35;19.20;;;8.45;;
30553;SDS011;17335;50.720;7.452;2023-10-19T02:28:05;21.10;;;9.25;;
30553;SDS011;17335;50.720;7.452;2023-10-19T02:30:35;19.33;;;9.27;;
30553;SDS011;17335;50.720;7.452;2023-10-19T02:33:02;18.13;;;8.88;;
30553;SDS011;17335;50.720;7.452;2023-10-19T02:35:32;16.45;;;8.35;;
30553;SDS011;17335;50.720;7.452;2023-10-19T02:38:01;17.27;;;8.68;;
30553;SDS011;17335;50.720;7.452;2023-10-19T02:40:30;21.15;;;9.55;;
30553;SDS011;17335;50.720;7.452;2023-10-19T02:43:00;20.70;;;9.15;;
30553;SDS011;17335;50.720;7.452;2023-10-19T02:45:29;20.20;;;9.65;;
30553;SDS011;17335;50.720;7.452;2023-10-19T02:47:57;17.35;;;8.77;;
30553;SDS011;17335;50.720;7.452;2023-10-19T02:50:24;20.17;;;9.25;;
30553;SDS011;17335;50.720;7.452;2023-10-19T02:52:52;18.42;;;8.77;;
30553;SDS011;17335;50.720;7.452;2023-10-19T02:55:19;19.45;;;8.73;;
30553;SDS011;17335;50.720;7.452;2023-10-19T02:57:49;18.92;;;9.07;;
30553;SDS011;17335;50.720;7.452;2023-10-19T03:00:16;20.15;;;9.73;;
30553;SDS011;17335;50.720;7.452;2023-10-19T03:02:47;18.85;;;9.73;;
30553;SDS011;17335;50.720;7.452;2023-10-19T03:05:14;22.38;;;9.27;;
30553;SDS011;17335;50.720;7.452;2023-10-19T03:07:42;21.27;;;9.50;;
30553;SDS011;17335;50.720;7.452;2023-10-19T03:10:10;22.38;;;10.27;;
30553;SDS011;17335;50.720;7.452;2023-10-19T03:12:56;17.48;;;9.50;;
30553;SDS011;17335;50.720;7.452;2023-10-19T03:15:23;17.15;;;9.70;;
30553;SDS011;17335;50.720;7.452;2023-10-19T03:17:51;21.83;;;9.57;;
30553;SDS011;17335;50.720;7.452;2023-10-19T03:20:17;18.55;;;8.75;;
30553;SDS011;17335;50.720;7.452;2023-10-19T03:22:50;23.38;;;8.95;;
30553;SDS011;17335;50.720;7.452;2023-10-19T03:25:17;23.20;;;8.82;;
30553;SDS011;17335;50.720;7.452;2023-10-19T03:28:02;25.50;;;9.60;;
30553;SDS011;17335;50.720;7.452;2023-10-19T03:30:35;20.45;;;9.10;;
30553;SDS011;17335;50.720;7.452;2023-10-19T03:33:06;20.48;;;9.50;;
30553;SDS011;17335;50.720;7.452;2023-10-19T03:35:37;16.65;;;8.60;;
30553;SDS011;17335;50.720;7.452;2023-10-19T03:38:04;18.80;;;9.40;;
30553;SDS011;17335;50.720;7.452;2023-10-19T03:40:45;18.45;;;9.00;;
30553;SDS011;17335;50.720;7.452;2023-10-19T03:43:18;20.25;;;8.93;;
30553;SDS011;17335;50.720;7.452;2023-10-19T03:45:48;19.33;;;8.68;;
30553;SDS011;17335;50.720;7.452;2023-10-19T03:48:18;15.57;;;8.15;;
30553;SDS011;17335;50.720;7.452;2023-10-19T03:51:00;18.10;;;7.93;;
30553;SDS011;17335;50.720;7.452;2023-10-19T03:53:29;15.50;;;8.38;;
30553;SDS011;17335;50.720;7.452;2023-10-19T03:55:57;15.98;;;8.02;;
30553;SDS011;17335;50.720;7.452;2023-10-19T03:58:24;16.08;;;7.50;;
30553;SDS011;17335;50.720;7.452;2023-10-19T04:00:50;19.08;;;8.65;;
30553;SDS011;17335;50.720;7.452;2023-10-19T04:03:17;19.40;;;8.70;;
30553;SDS011;17335;50.720;7.452;2023-10-19T04:05:44;19.20;;;8.40;;
30553;SDS011;17335;50.720;7.452;2023-10-19T04:08:13;19.65;;;9.23;;
30553;SDS011;17335;50.720;7.452;2023-10-19T04:10:47;19.70;;;9.10;;
30553;SDS011;17335;50.720;7.452;2023-10-19T04:13:32;19.77;;;9.65;;
30553;SDS011;17335;50.720;7.452;2023-10-19T04:15:58;20.50;;;8.70;;
30553;SDS011;17335;50.720;7.452;2023-10-19T04:18:25;20.63;;;8.20;;
30553;SDS011;17335;50.720;7.452;2023-10-19T04:20:51;20.35;;;9.15;;
30553;SDS011;17335;50.720;7.452;2023-10-19T04:23:22;20.80;;;10.18;;
30553;SDS011;17335;50.720;7.452;2023-10-19T04:25:54;25.17;;;9.85;;
30553;SDS011;17335;50.720;7.452;2023-10-19T04:28:22;19.67;;;8.80;;
30553;SDS011;17335;50.720;7.452;2023-10-19T04:30:57;19.60;;;9.67;;
30553;SDS011;17335;50.720;7.452;2023-10-19T04:33:30;19.30;;;8.93;;
30553;SDS011;17335;50.720;7.452;2023-10-19T04:35:58;17.77;;;8.05;;
30553;SDS011;17335;50.720;7.452;2023-10-19T04:38:26;19.50;;;8.40;;
30553;SDS011;17335;50.720;7.452;2023-10-19T04:40:55;19.45;;;8.25;;
30553;SDS011;17335;50.720;7.452;2023-10-19T04:43:21;22.55;;;8.98;;
30553;SDS011;17335;50.720;7.452;2023-10-19T04:45:48;18.58;;;8.98;;
30553;SDS011;17335;50.720;7.452;2023-10-19T04:48:14;20.45;;;9.07;;
30553;SDS011;17335;50.720;7.452;2023-10-19T04:50:41;19.60;;;8.73;;
30553;SDS011;17335;50.720;7.452;2023-10-19T04:53:08;16.80;;;8.27;;
30553;SDS011;17335;50.720;7.452;2023-10-19T04:55:34;19.25;;;8.70;;
30553;SDS011;17335;50.720;7.452;2023-10-19T04:58:01;18.73;;;8.60;;
30553;SDS011;17335;50.720;7.452;2023-10-19T05:00:27;20.33;;;8.15;;
30553;SDS011;17335;50.720;7.452;2023-10-19T05:02:54;23.27;;;8.63;;
30553;SDS011;17335;50.720;7.452;2023-10-19T05:05:21;18.83;;;8.13;;
30553;SDS011;17335;50.720;7.452;2023-10-19T05:07:48;17.27;;;8.55;;
30553;SDS011;17335;50.720;7.452;2023-10-19T05:10:15;19.75;;;8.32;;
30553;SDS011;17335;50.720;7.452;2023-10-19T05:12:41;25.02;;;9.68;;
30553;SDS011;17335;50.720;7.452;2023-10-19T05:15:08;21.05;;;8.80;;
30553;SDS011;17335;50.720;7.452;2023-10-19T05:17:35;22.75;;;9.93;;
30553;SDS011;17335;50.720;7.452;2023-10-19T05:20:02;22.52;;;10.18;;
30553;SDS011;17335;50.720;7.452;2023-10-19T05:22:31;34.42;;;10.75;;
30553;SDS011;17335;50.720;7.452;2023-10-19T05:24:59;23.60;;;10.80;;
30553;SDS011;17335;50.720;7.452;2023-10-19T05:27:25;21.45;;;10.07;;
30553;SDS011;17335;50.720;7.452;2023-10-19T05:29:51;20.17;;;9.95;;
30553;SDS011;17335;50.720;7.452;2023-10-19T05:32:18;25.63;;;10.57;;
30553;SDS011;17335;50.720;7.452;2023-10-19T05:34:45;23.60;;;9.98;;
30553;SDS011;17335;50.720;7.452;2023-10-19T05:37:11;21.98;;;10.15;;
30553;SDS011;17335;50.720;7.452;2023-10-19T05:39:38;20.88;;;9.65;;
30553;SDS011;17335;50.720;7.452;2023-10-19T05:42:05;20.45;;;9.70;;
30553;SDS011;17335;50.720;7.452;2023-10-19T05:44:32;21.70;;;9.88;;
30553;SDS011;17335;50.720;7.452;2023-10-19T05:46:59;20.10;;;8.77;;
30553;SDS011;17335;50.720;7.452;2023-10-19T05:49:27;19.83;;;9.02;;
30553;SDS011;17335;50.720;7.452;2023-10-19T05:51:55;20.17;;;9.45;;
30553;SDS011;17335;50.720;7.452;2023-10-19T05:54:23;19.05;;;9.68;;
30553;SDS011;17335;50.720;7.452;2023-10-19T05:56:54;19.00;;;9.05;;
30553;SDS011;17335;50.720;7.452;2023-10-19T05:59:22;19.98;;;8.55;;
30553;SDS011;17335;50.720;7.452;2023-10-19T06:01:52;18.70;;;9.60;;
30553;SDS011;17335;50.720;7.452;2023-10-19T06:04:19;18.58;;;9.10;;
30553;SDS011;17335;50.720;7.452;2023-10-19T06:06:47;18.30;;;7.55;;
30553;SDS011;17335;50.720;7.452;2023-10-19T06:09:15;22.70;;;8.75;;
30553;SDS011;17335;50.720;7.452;2023-10-19T06:11:43;15.68;;;8.50;;
30553;SDS011;17335;50.720;7.452;2023-10-19T06:14:09;22.70;;;8.50;;
30553;SDS011;17335;50.720;7.452;2023-10-19T06:16:36;17.42;;;8.15;;
30553;SDS011;17335;50.720;7.452;2023-10-19T06:19:03;18.35;;;9.27;;
30553;SDS011;17335;50.720;7.452;2023-10-19T06:21:32;23.25;;;8.98;;
30553;SDS011;17335;50.720;7.452;2023-10-19T06:24:00;18.15;;;8.65;;
30553;SDS011;17335;50.720;7.452;2023-10-19T06:26:26;20.02;;;8.15;;
30553;SDS011;17335;50.720;7.452;2023-10-19T06:28:53;16.02;;;8.07;;
30553;SDS011;17335;50.720;7.452;2023-10-19T06:31:25;17.83;;;8.32;;
30553;SDS011;17335;50.720;7.452;2023-10-19T06:33:52;17.85;;;7.72;;
30553;SDS011;17335;50.720;7.452;2023-10-19T06:36:19;16.00;;;6.90;;
30553;SDS011;17335;50.720;7.452;2023-10-19T06:38:45;18.38;;;7.90;;
30553;SDS011;17335;50.720;7.452;2023-10-19T06:41:12;21.40;;;7.68;;
30553;SDS011;17335;50.720;7.452;2023-10-19T06:43:40;16.15;;;7.53;;
30553;SDS011;17335;50.720;7.452;2023-10-19T06:46:07;19.52;;;7.45;;
30553;SDS011;17335;50.720;7.452;2023-10-19T06:48:38;14.88;;;6.97;;
30553;SDS011;17335;50.720;7.452;2023-10-19T06:51:05;13.85;;;6.78;;
30553;SDS011;17335;50.720;7.452;2023-10-19T06:53:33;13.10;;;6.07;;
30553;SDS011;17335;50.720;7.452;2023-10-19T06:56:00;16.10;;;6.55;;
30553;SDS011;17335;50.720;7.452;2023-10-19T06:58:27;11.60;;;6.53;;
30553;SDS011;17335;50.720;7.452;2023-10-19T07:00:54;16.23;;;6.43;;
30553;SDS011;17335;50.720;7.452;2023-10-19T07:03:26;11.52;;;6.32;;
30553;SDS011;17335;50.720;7.452;2023-10-19T07:05:54;14.38;;;6.47;;
30553;SDS011;17335;50.720;7.452;2023-10-19T07:08:22;10.93;;;5.80;;
30553;SDS011;17335;50.720;7.452;2023-10-19T07:10:49;15.60;;;6.55;;
30553;SDS011;17335;50.720;7.452;2023-10-19T07:13:18;11.00;;;5.30;;
30553;SDS011;17335;50.720;7.452;2023-10-19T07:15:46;14.13;;;5.78;;
30553;SDS011;17335;50.720;7.452;2023-10-19T07:18:15;12.70;;;5.65;;
30553;SDS011;17335;50.720;7.452;2023-10-19T07:20:42;11.65;;;5.38;;
30553;SDS011;17335;50.720;7.452;2023-10-19T07:23:09;10.25;;;5.57;;
30553;SDS011;17335;50.720;7.452;2023-10-19T07:25:46;10.93;;;5.78;;
30553;SDS011;17335;50.720;7.452;2023-10-19T07:28:22;11.68;;;5.60;;
30553;SDS011;17335;50.720;7.452;2023-10-19T07:30:50;12.35;;;5.82;;
30553;SDS011;17335;50.720;7.452;2023-10-19T07:33:18;12.35;;;6.50;;
30553;SDS011;17335;50.720;7.452;2023-10-19T07:35:46;13.68;;;5.82;;
30553;SDS011;17335;50.720;7.452;2023-10-19T07:38:14;14.20;;;5.93;;
30553;SDS011;17335;50.720;7.452;2023-10-19T07:40:41;12.73;;;5.55;;
30553;SDS011;17335;50.720;7.452;2023-10-19T07:43:09;13.25;;;5.25;;
30553;SDS011;17335;50.720;7.452;2023-10-19T07:45:36;10.38;;;4.85;;
30553;SDS011;17335;50.720;7.452;2023-10-19T07:48:03;10.57;;;4.57;;
30553;SDS011;17335;50.720;7.452;2023-10-19T07:50:37;13.95;;;5.68;;
30553;SDS011;17335;50.720;7.452;2023-10-19T07:53:06;9.48;;;4.72;;
30553;SDS011;17335;50.720;7.452;2023-10-19T07:55:33;8.73;;;5.13;;
30553;SDS011;17335;50.720;7.452;2023-10-19T07:58:00;9.50;;;4.97;;
30553;SDS011;17335;50.720;7.452;2023-10-19T08:00:27;16.83;;;5.70;;
30553;SDS011;17335;50.720;7.452;2023-10-19T08:02:55;10.02;;;5.10;;
30553;SDS011;17335;50.720;7.452;2023-10-19T08:05:22;13.25;;;4.97;;
30553;SDS011;17335;50.720;7.452;2023-10-19T08:07:49;9.52;;;5.35;;
30553;SDS011;17335;50.720;7.452;2023-10-19T08:10:16;17.02;;;5.00;;
30553;SDS011;17335;50.720;7.452;2023-10-19T08:12:44;11.63;;;5.03;;
30553;SDS011;17335;50.720;7.452;2023-10-19T08:15:14;11.10;;;4.15;;
30553;SDS011;17335;50.720;7.452;2023-10-19T08:17:43;10.02;;;4.95;;
30553;SDS011;17335;50.720;7.452;2023-10-19T08:20:21;10.82;;;4.70;;
30553;SDS011;17335;50.720;7.452;2023-10-19T08:22:58;8.65;;;4.30;;
30553;SDS011;17335;50.720;7.452;2023-10-19T08:25:28;11.77;;;4.70;;
30553;SDS011;17335;50.720;7.452;2023-10-19T08:28:09;10.35;;;4.88;;
30553;SDS011;17335;50.720;7.452;2023-10-19T08:30:37;11.07;;;4.15;;
30553;SDS011;17335;50.720;7.452;2023-10-19T08:33:04;9.85;;;4.35;;
30553;SDS011;17335;50.720;7.452;2023-10-19T08:35:30;8.30;;;3.65;;
30553;SDS011;17335;50.720;7.452;2023-10-19T08:37:57;9.48;;;3.70;;
30553;SDS011;17335;50.720;7.452;2023-10-19T08:40:25;9.70;;;3.72;;
30553;SDS011;17335;50.720;7.452;2023-10-19T08:42:53;11.05;;;3.65;;
30553;SDS011;17335;50.720;7.452;2023-10-19T08:45:22;9.38;;;4.28;;
30553;SDS011;17335;50.720;7.452;2023-10-19T08:47:56;13.88;;;3.90;;
30553;SDS011;17335;50.720;7.452;2023-10-19T08:50:32;11.63;;;4.25;;
30553;SDS011;17335;50.720;7.452;2023-10-19T08:53:01;7.65;;;3.67;;
30553;SDS011;17335;50.720;7.452;2023-10-19T08:55:31;17.10;;;3.88;;
30553;SDS011;17335;50.720;7.452;2023-10-19T08:58:14;6.97;;;3.53;;
30553;SDS011;17335;50.720;7.452;2023-10-19T09:00:49;9.18;;;3.13;;
30553;SDS011;17335;50.720;7.452;2023-10-19T09:03:33;11.10;;;4.28;;
30553;SDS011;17335;50.720;7.452;2023-10-19T09:06:03;11.35;;;3.03;;
30553;SDS011;17335;50.720;7.452;2023-10-19T09:08:31;9.93;;;3.00;;
30553;SDS011;17335;50.720;7.452;2023-10-19T09:11:08;7.07;;;2.50;;
30553;SDS011;17335;50.720;7.452;2023-10-19T09:13:45;5.72;;;2.70;;
30553;SDS011;17335;50.720;7.452;2023-10-19T09:16:14;8.40;;;3.03;;
30553;SDS011;17335;50.720;7.452;2023-10-19T09:18:41;8.45;;;2.90;;
30553;SDS011;17335;50.720;7.452;2023-10-19T09:21:08;7.88;;;2.38;;
30553;SDS011;17335;50.720;7.452;2023-10-19T09:23:38;9.60;;;2.53;;
30553;SDS011;17335;50.720;7.452;2023-10-19T09:26:05;9.48;;;2.90;;
30553;SDS011;17335;50.720;7.452;2023-10-19T09:28:36;6.32;;;2.22;;
30553;SDS011;17335;50.720;7.452;2023-10-19T09:31:05;5.55;;;2.30;;
30553;SDS011;17335;50.720;7.452;2023-10-19T09:33:36;10.75;;;2.90;;
30553;SDS011;17335;50.720;7.452;2023-10-19T09:36:07;9.05;;;2.35;;
30553;SDS011;17335;50.720;7.452;2023-10-19T09:38:46;8.85;;;2.92;;
30553;SDS011;17335;50.720;7.452;2023-10-19T09:41:24;5.28;;;1.85;;
30553;SDS011;17335;50.720;7.452;2023-10-19T09:43:57;8.70;;;1.88;;
30553;SDS011;17335;50.720;7.452;2023-10-19T09:46:31;5.15;;;1.73;;
30553;SDS011;17335;50.720;7.452;2023-10-19T09:48:58;7.07;;;2.00;;
30553;SDS011;17335;50.720;7.452;2023-10-19T09:51:25;8.10;;;1.90;;
30553;SDS011;17335;50.720;7.452;2023-10-19T09:54:05;7.05;;;1.70;;
30553;SDS011;17335;50.720;7.452;2023-10-19T09:56:43;4.00;;;1.58;;
30553;SDS011;17335;50.720;7.452;2023-10-19T09:59:26;6.82;;;1.98;;
30553;SDS011;17335;50.720;7.452;2023-10-19T10:02:08;4.25;;;1.40;;
30553;SDS011;17335;50.720;7.452;2023-10-19T10:04:40;6.05;;;1.80;;
30553;SDS011;17335;50.720;7.452;2023-10-19T10:07:08;6.50;;;1.63;;
30553;SDS011;17335;50.720;7.452;2023-10-19T10:09:36;4.00;;;1.67;;
30553;SDS011;17335;50.720;7.452;2023-10-19T10:14:57;4.20;;;1.60;;
30553;SDS011;17335;50.720;7.452;2023-10-19T10:17:30;9.45;;;2.05;;
30553;SDS011;17335;50.720;7.452;2023-10-19T10:22:40;6.55;;;1.70;;
30553;SDS011;17335;50.720;7.452;2023-10-19T10:25:25;7.07;;;1.65;;
30553;SDS011;17335;50.720;7.452;2023-10-19T10:27:53;6.22;;;1.58;;
30553;SDS011;17335;50.720;7.452;2023-10-19T10:30:21;4.30;;;1.60;;
30553;SDS011;17335;50.720;7.452;2023-10-19T10:32:51;3.90;;;1.48;;
30553;SDS011;17335;50.720;7.452;2023-10-19T10:38:03;4.43;;;1.35;;
30553;SDS011;17335;50.720;7.452;2023-10-19T10:40:45;10.13;;;1.60;;
30553;SDS011;17335;50.720;7.452;2023-10-19T10:43:16;8.55;;;2.10;;
30553;SDS011;17335;50.720;7.452;2023-10-19T10:45:45;11.07;;;2.05;;
30553;SDS011;17335;50.720;7.452;2023-10-19T10:48:15;3.53;;;1.77;;
30553;SDS011;17335;50.720;7.452;2023-10-19T10:50:43;9.02;;;1.58;;
30553;SDS011;17335;50.720;7.452;2023-10-19T10:53:12;6.18;;;1.70;;
30553;SDS011;17335;50.720;7.452;2023-10-19T10:55:41;7.32;;;1.80;;
30553;SDS011;17335;50.720;7.452;2023-10-19T10:58:08;6.53;;;1.83;;
30553;SDS011;17335;50.720;7.452;2023-10-19T11:00:41;5.78;;;1.70;;
30553;SDS011;17335;50.720;7.452;2023-10-19T11:03:09;5.60;;;2.00;;
30553;SDS011;17335;50.720;7.452;2023-10-19T11:05:36;4.53;;;1.85;;
30553;SDS011;17335;50.720;7.452;2023-10-19T11:08:13;7.22;;;1.85;;
30553;SDS011;17335;50.720;7.452;2023-10-19T11:10:47;9.77;;;2.10;;
30553;SDS011;17335;50.720;7.452;2023-10-19T11:13:15;11.50;;;1.95;;
30553;SDS011;17335;50.720;7.452;2023-10-19T11:15:50;9.02;;;1.98;;
30553;SDS011;17335;50.720;7.452;2023-10-19T11:18:32;5.78;;;1.67;;
30553;SDS011;17335;50.720;7.452;2023-10-19T11:21:05;3.92;;;1.63;;
30553;SDS011;17335;50.720;7.452;2023-10-19T11:23:36;8.18;;;1.98;;
30553;SDS011;17335;50.720;7.452;2023-10-19T11:26:09;6.88;;;1.70;;
30553;SDS011;17335;50.720;7.452;2023-10-19T11:28:39;9.45;;;2.00;;
30553;SDS011;17335;50.720;7.452;2023-10-19T11:31:17;8.65;;;2.00;;
30553;SDS011;17335;50.720;7.452;2023-10-19T11:33:46;4.97;;;1.88;;
30553;SDS011;17335;50.720;7.452;2023-10-19T11:36:16;8.40;;;1.80;;
30553;SDS011;17335;50.720;7.452;2023-10-19T11:38:45;5.25;;;2.05;;
30553;SDS011;17335;50.720;7.452;2023-10-19T11:41:14;4.80;;;1.80;;
30553;SDS011;17335;50.720;7.452;2023-10-19T11:43:45;5.35;;;1.73;;
30553;SDS011;17335;50.720;7.452;2023-10-19T11:46:13;9.65;;;1.92;;
30553;SDS011;17335;50.720;7.452;2023-10-19T11:48:41;7.03;;;2.20;;
30553;SDS011;17335;50.720;7.452;2023-10-19T11:51:09;6.78;;;2.13;;
30553;SDS011;17335;50.720;7.452;2023-10-19T11:53:40;8.40;;;2.72;;
30553;SDS011;17335;50.720;7.452;2023-10-19T11:56:10;7.65;;;2.25;;
30553;SDS011;17335;50.720;7.452;2023-10-19T11:58:39;9.00;;;2.10;;
30553;SDS011;17335;50.720;7.452;2023-10-19T12:01:11;7.90;;;2.40;;
30553;SDS011;17335;50.720;7.452;2023-10-19T12:03:43;7.22;;;2.20;;
30553;SDS011;17335;50.720;7.452;2023-10-19T12:06:12;8.95;;;2.22;;
30553;SDS011;17335;50.720;7.452;2023-10-19T12:08:45;8.77;;;2.15;;
30553;SDS011;17335;50.720;7.452;2023-10-19T12:11:12;11.57;;;3.30;;
30553;SDS011;17335;50.720;7.452;2023-10-19T12:13:43;4.85;;;1.80;;
30553;SDS011;17335;50.720;7.452;2023-10-19T12:16:13;4.15;;;1.70;;
30553;SDS011;17335;50.720;7.452;2023-10-19T12:18:43;4.82;;;1.98;;
30553;SDS011;17335;50.720;7.452;2023-10-19T12:21:11;5.22;;;1.80;;
30553;SDS011;17335;50.720;7.452;2023-10-19T12:23:38;6.75;;;1.88;;
30553;SDS011;17335;50.720;7.452;2023-10-19T12:26:07;7.38;;;2.30;;
30553;SDS011;17335;50.720;7.452;2023-10-19T12:28:41;7.33;;;2.63;;
30553;SDS011;17335;50.720;7.452;2023-10-19T12:31:10;9.88;;;2.00;;
30553;SDS011;17335;50.720;7.452;2023-10-19T12:33:38;4.85;;;1.92;;
30553;SDS011;17335;50.720;7.452;2023-10-19T12:36:05;9.80;;;1.90;;
30553;SDS011;17335;50.720;7.452;2023-10-19T12:38:53;6.07;;;2.13;;
30553;SDS011;17335;50.720;7.452;2023-10-19T12:41:21;8.98;;;1.73;;
30553;SDS011;17335;50.720;7.452;2023-10-19T12:43:48;11.15;;;1.85;;
30553;SDS011;17335;50.720;7.452;2023-10-19T12:46:19;4.10;;;1.50;;
30553;SDS011;17335;50.720;7.452;2023-10-19T12:48:47;12.88;;;2.22;;
30553;SDS011;17335;50.720;7.452;2023-10-19T12:51:13;7.72;;;1.75;;
30553;SDS011;17335;50.720;7.452;2023-10-19T12:53:40;6.95;;;1.80;;
30553;SDS011;17335;50.720;7.452;2023-10-19T12:56:07;5.80;;;2.78;;
30553;SDS011;17335;50.720;7.452;2023-10-19T12:58:37;9.48;;;1.92;;
30553;SDS011;17335;50.720;7.452;2023-10-19T13:01:04;7.50;;;2.15;;
30553;SDS011;17335;50.720;7.452;2023-10-19T13:03:37;7.32;;;2.30;;
30553;SDS011;17335;50.720;7.452;2023-10-19T13:06:06;5.53;;;1.90;;
30553;SDS011;17335;50.720;7.452;2023-10-19T13:08:33;7.78;;;2.20;;
30553;SDS011;17335;50.720;7.452;2023-10-19T13:11:00;4.53;;;1.80;;
30553;SDS011;17335;50.720;7.452;2023-10-19T13:13:41;9.10;;;2.30;;
30553;SDS011;17335;50.720;7.452;2023-10-19T13:16:08;6.50;;;2.05;;
30553;SDS011;17335;50.720;7.452;2023-10-19T13:18:35;6.03;;;2.10;;
30553;SDS011;17335;50.720;7.452;2023-10-19T13:21:02;11.20;;;3.72;;
30553;SDS011;17335;50.720;7.452;2023-10-19T13:23:31;5.15;;;2.10;;
30553;SDS011;17335;50.720;7.452;2023-10-19T13:26:02;6.43;;;2.22;;
30553;SDS011;17335;50.720;7.452;2023-10-19T13:28:39;4.82;;;2.10;;
30553;SDS011;17335;50.720;7.452;2023-10-19T13:31:07;8.02;;;2.80;;
30553;SDS011;17335;50.720;7.452;2023-10-19T13:33:36;7.05;;;2.72;;
30553;SDS011;17335;50.720;7.452;2023-10-19T13:36:04;7.43;;;2.85;;
30553;SDS011;17335;50.720;7.452;2023-10-19T13:38:32;8.23;;;3.05;;
30553;SDS011;17335;50.720;7.452;2023-10-19T13:41:02;6.05;;;2.90;;
30553;SDS011;17335;50.720;7.452;2023-10-19T13:43:33;7.78;;;2.67;;
30553;SDS011;17335;50.720;7.452;2023-10-19T13:46:04;10.40;;;3.45;;
30553;SDS011;17335;50.720;7.452;2023-10-19T13:48:31;7.50;;;3.08;;
30553;SDS011;17335;50.720;7.452;2023-10-19T13:51:02;9.70;;;3.38;;
30553;SDS011;17335;50.720;7.452;2023-10-19T13:53:41;12.90;;;3.65;;
30553;SDS011;17335;50.720;7.452;2023-10-19T13:56:11;10.00;;;3.35;;
30553;SDS011;17335;50.720;7.452;2023-10-19T13:58:38;8.82;;;3.75;;
30553;SDS011;17335;50.720;7.452;2023-10-19T14:03:37;6.57;;;3.53;;
30553;SDS011;17335;50.720;7.452;2023-10-19T14:06:11;6.97;;;3.53;;
30553;SDS011;17335;50.720;7.452;2023-10-19T14:08:38;8.27;;;3.47;;
30553;SDS011;17335;50.720;7.452;2023-10-19T14:11:05;9.63;;;3.58;;
30553;SDS011;17335;50.720;7.452;2023-10-19T14:13:33;10.95;;;3.70;;
30553;SDS011;17335;50.720;7.452;2023-10-19T14:16:05;9.50;;;5.03;;
30553;SDS011;17335;50.720;7.452;2023-10-19T14:18:35;7.90;;;3.83;;
30553;SDS011;17335;50.720;7.452;2023-10-19T14:21:15;7.45;;;3.55;;
30553;SDS011;17335;50.720;7.452;2023-10-19T14:23:44;12.25;;;3.80;;
30553;SDS011;17335;50.720;7.452;2023-10-19T14:26:12;7.70;;;3.80;;
30553;SDS011;17335;50.720;7.452;2023-10-19T14:28:40;7.45;;;3.88;;
30553;SDS011;17335;50.720;7.452;2023-10-19T14:31:08;10.73;;;4.90;;
30553;SDS011;17335;50.720;7.452;2023-10-19T14:33:35;16.23;;;5.95;;
30553;SDS011;17335;50.720;7.452;2023-10-19T14:36:04;10.75;;;4.70;;
30553;SDS011;17335;50.720;7.452;2023-10-19T14:38:31;19.05;;;5.60;;
30553;SDS011;17335;50.720;7.452;2023-10-19T14:40:59;18.25;;;6.53;;
30553;SDS011;17335;50.720;7.452;2023-10-19T14:43:26;20.42;;;6.53;;
30553;SDS011;17335;50.720;7.452;2023-10-19T14:45:55;14.82;;;5.38;;
30553;SDS011;17335;50.720;7.452;2023-10-19T14:48:23;34.38;;;16.05;;
30553;SDS011;17335;50.720;7.452;2023-10-19T14:50:50;18.95;;;8.35;;
30553;SDS011;17335;50.720;7.452;2023-10-19T14:53:17;9.38;;;5.82;;
30553;SDS011;17335;50.720;7.452;2023-10-19T14:55:45;9.40;;;5.85;;
30553;SDS011;17335;50.720;7.452;2023-10-19T14:58:12;10.90;;;5.30;;
30553;SDS011;17335;50.720;7.452;2023-10-19T15:00:38;7.72;;;4.45;;
30553;SDS011;17335;50.720;7.452;2023-10-19T15:03:09;10.90;;;5.03;;
30553;SDS011;17335;50.720;7.452;2023-10-19T15:05:37;8.90;;;4.88;;
30553;SDS011;17335;50.720;7.452;2023-10-19T15:08:04;9.15;;;4.40;;
30553;SDS011;17335;50.720;7.452;2023-10-19T15:10:33;9.18;;;4.88;;